createdAt,value
2023-02-28T00:01:40.666Z,7.30
2023-02-28T00:04:10.273Z,6.37
2023-02-28T00:06:37.994Z,6.43
2023-02-28T00:09:05.722Z,8.63
2023-02-28T00:11:33.445Z,10.33
2023-02-28T00:14:01.180Z,6.00
2023-02-28T00:16:30.344Z,5.83
2023-02-28T00:18:58.152Z,9.00
2023-02-28T00:21:25.925Z,8.17
2023-02-28T00:23:53.688Z,7.40
2023-02-28T00:26:22.018Z,8.87
2023-02-28T00:28:49.962Z,5.90
2023-02-28T00:31:17.672Z,5.17
2023-02-28T00:33:47.089Z,6.63
2023-02-28T00:36:14.804Z,11.90
2023-02-28T00:38:43.027Z,5.57
2023-02-28T00:41:11.249Z,6.93
2023-02-28T00:43:40.619Z,6.20
2023-02-28T00:46:09.108Z,7.97
2023-02-28T00:48:37.199Z,7.80
2023-02-28T00:51:07.157Z,11.43
2023-02-28T00:53:34.974Z,6.73
2023-02-28T00:56:02.941Z,6.47
2023-02-28T00:58:31.336Z,9.50
2023-02-28T01:00:59.117Z,10.57
2023-02-28T01:03:26.837Z,8.87
2023-02-28T01:05:55.011Z,6.70
2023-02-28T01:08:24.171Z,10.87
2023-02-28T01:10:52.160Z,6.03
2023-02-28T01:13:20.142Z,9.57
2023-02-28T01:15:51.865Z,7.07
2023-02-28T01:18:19.660Z,9.83
2023-02-28T01:20:47.322Z,10.33
2023-02-28T01:23:15.053Z,10.30
2023-02-28T01:25:44.139Z,12.20
2023-02-28T01:28:11.879Z,8.77
2023-02-28T01:30:39.627Z,11.63
2023-02-28T01:33:07.312Z,7.67
2023-02-28T01:35:35.519Z,12.07
2023-02-28T01:38:19.356Z,9.83
2023-02-28T01:40:50.164Z,7.87
2023-02-28T01:43:22.621Z,5.50
2023-02-28T01:45:50.409Z,7.97
2023-02-28T01:48:18.142Z,7.23
2023-02-28T01:50:47.511Z,6.60
2023-02-28T01:53:16.948Z,7.53
2023-02-28T01:55:49.314Z,8.53
2023-02-28T01:58:18.369Z,6.10
2023-02-28T02:00:46.141Z,7.27
2023-02-28T02:03:17.346Z,11.70
2023-02-28T02:05:48.435Z,10.13
2023-02-28T02:08:19.777Z,6.37
2023-02-28T02:10:50.330Z,7.07
2023-02-28T02:13:47.721Z,9.17
2023-02-28T02:16:25.891Z,6.73
2023-02-28T02:18:55.666Z,7.93
2023-02-28T02:21:53.754Z,8.67
2023-02-28T02:24:50.769Z,8.90
2023-02-28T02:27:23.089Z,5.97
2023-02-28T02:30:11.061Z,5.83
2023-02-28T02:33:12.321Z,6.37
2023-02-28T02:35:43.665Z,10.23
2023-02-28T02:38:16.199Z,8.40
2023-02-28T02:40:45.859Z,9.47
2023-02-28T02:43:17.283Z,8.10
2023-02-28T02:45:48.664Z,8.47
2023-02-28T02:48:19.434Z,5.27
2023-02-28T02:50:51.693Z,5.93
2023-02-28T02:53:21.477Z,8.07
2023-02-28T02:55:55.429Z,9.80
2023-02-28T02:58:27.339Z,8.37
2023-02-28T03:00:57.067Z,8.77
2023-02-28T03:03:29.786Z,10.33
2023-02-28T03:05:59.995Z,13.77
2023-02-28T03:08:28.511Z,7.83
2023-02-28T03:10:59.653Z,7.00
2023-02-28T03:13:45.655Z,7.90
2023-02-28T03:16:34.923Z,13.93
2023-02-28T03:19:27.623Z,12.23
2023-02-28T03:22:18.676Z,9.97
2023-02-28T03:24:52.781Z,6.57
2023-02-28T03:27:25.925Z,15.27
2023-02-28T03:29:59.527Z,12.23
2023-02-28T03:32:29.919Z,10.43
2023-02-28T03:35:01.244Z,7.93
2023-02-28T03:37:31.191Z,9.13
2023-02-28T03:40:02.877Z,8.07
2023-02-28T03:42:32.136Z,9.97
2023-02-28T03:45:01.818Z,12.33
2023-02-28T03:47:31.588Z,8.23
2023-02-28T03:50:01.423Z,7.90
2023-02-28T03:52:34.392Z,15.20
2023-02-28T03:55:07.455Z,7.40
2023-02-28T03:57:39.872Z,9.13
2023-02-28T04:00:13.240Z,8.63
2023-02-28T04:02:40.996Z,7.33
2023-02-28T04:05:09.475Z,12.57
2023-02-28T04:07:38.539Z,8.20
2023-02-28T04:10:07.383Z,8.97
2023-02-28T04:12:35.047Z,10.53
2023-02-28T04:15:02.763Z,11.97
2023-02-28T04:17:30.431Z,10.47
2023-02-28T04:19:58.551Z,8.97
2023-02-28T04:22:27.835Z,9.27
2023-02-28T04:24:56.926Z,6.23
2023-02-28T04:27:24.607Z,8.30
2023-02-28T04:29:52.326Z,8.00
2023-02-28T04:32:20.118Z,6.03
2023-02-28T04:34:47.803Z,8.00
2023-02-28T04:37:15.538Z,9.70
2023-02-28T04:39:43.726Z,7.57
2023-02-28T04:42:13.355Z,9.10
2023-02-28T04:44:41.098Z,8.83
2023-02-28T04:47:08.844Z,7.60
2023-02-28T04:49:36.586Z,11.97
2023-02-28T04:52:04.554Z,9.27
2023-02-28T04:54:32.225Z,7.00
2023-02-28T04:56:59.946Z,6.07
2023-02-28T04:59:29.077Z,7.47
2023-02-28T05:01:56.791Z,10.97
2023-02-28T05:04:24.544Z,7.97
2023-02-28T05:06:52.240Z,8.27
2023-02-28T05:09:19.952Z,13.60
2023-02-28T05:11:47.596Z,9.60
2023-02-28T05:14:16.097Z,7.40
2023-02-28T05:16:45.196Z,14.07
2023-02-28T05:19:12.865Z,13.53
2023-02-28T05:21:42.174Z,10.17
2023-02-28T05:24:12.912Z,8.80
2023-02-28T05:26:42.876Z,5.37
2023-02-28T05:29:11.085Z,8.87
2023-02-28T05:31:38.848Z,10.63
2023-02-28T05:34:08.225Z,7.40
2023-02-28T05:36:35.959Z,10.70
2023-02-28T05:39:04.256Z,6.93
2023-02-28T05:41:32.248Z,6.40
2023-02-28T05:44:00.685Z,10.93
2023-02-28T05:46:28.409Z,7.70
2023-02-28T05:48:56.861Z,8.23
2023-02-28T05:51:25.859Z,7.87
2023-02-28T05:53:53.632Z,9.63
2023-02-28T05:56:21.268Z,8.83
2023-02-28T05:58:48.907Z,10.07
2023-02-28T06:01:25.227Z,7.00
2023-02-28T06:03:53.128Z,11.93
2023-02-28T06:06:20.887Z,6.20
2023-02-28T06:08:50.024Z,6.40
2023-02-28T06:11:17.788Z,7.33
2023-02-28T06:13:45.717Z,8.43
2023-02-28T06:16:13.666Z,7.77
2023-02-28T06:18:41.484Z,6.87
2023-02-28T06:21:09.927Z,6.43
2023-02-28T06:23:37.853Z,13.27
2023-02-28T06:26:07.285Z,14.00
2023-02-28T06:28:34.940Z,23.43
2023-02-28T06:31:08.747Z,56.50
2023-02-28T06:33:36.915Z,37.20
2023-02-28T06:36:05.172Z,15.73
2023-02-28T06:38:32.852Z,13.27
2023-02-28T06:41:01.209Z,13.23
2023-02-28T06:43:33.298Z,6.40
2023-02-28T06:46:02.399Z,5.87
2023-02-28T06:48:30.267Z,6.27
2023-02-28T06:51:04.763Z,10.10
2023-02-28T06:53:32.549Z,5.80
2023-02-28T06:56:00.201Z,6.63
2023-02-28T06:58:27.937Z,6.93
2023-02-28T07:00:57.155Z,6.00
2023-02-28T07:03:25.052Z,6.23
2023-02-28T07:05:52.827Z,7.47
2023-02-28T07:08:20.492Z,13.07
2023-02-28T07:10:48.161Z,13.87
2023-02-28T07:13:15.818Z,11.00
2023-02-28T07:15:44.322Z,9.53
2023-02-28T07:18:13.415Z,7.27
2023-02-28T07:20:41.125Z,10.30
2023-02-28T07:23:08.761Z,10.07
2023-02-28T07:25:36.496Z,15.73
2023-02-28T07:28:04.245Z,9.57
2023-02-28T07:30:31.913Z,8.57
2023-02-28T07:32:59.622Z,5.83
2023-02-28T07:35:28.693Z,9.37
2023-02-28T07:37:56.358Z,6.70
2023-02-28T07:40:24.078Z,6.30
2023-02-28T07:42:51.795Z,7.50
2023-02-28T07:45:20.475Z,6.43
2023-02-28T07:47:48.223Z,6.30
2023-02-28T07:50:17.445Z,4.20
2023-02-28T07:52:46.513Z,4.30
2023-02-28T07:55:14.666Z,5.57
2023-02-28T07:57:42.655Z,5.13
2023-02-28T08:00:13.649Z,4.37
2023-02-28T08:02:41.552Z,3.97
2023-02-28T08:05:10.160Z,5.57
2023-02-28T08:07:37.841Z,7.20
2023-02-28T08:10:08.173Z,6.27
2023-02-28T08:12:35.909Z,3.67
2023-02-28T08:15:03.572Z,5.23
2023-02-28T08:17:32.385Z,4.67
2023-02-28T08:20:00.935Z,6.17
2023-02-28T08:22:28.596Z,5.57
2023-02-28T08:24:56.253Z,5.43
2023-02-28T08:27:25.406Z,4.03
2023-02-28T08:29:53.070Z,3.77
2023-02-28T08:32:29.258Z,6.93
2023-02-28T08:34:58.283Z,5.67
2023-02-28T08:37:26.253Z,5.83
2023-02-28T08:39:56.245Z,1.67
2023-02-28T08:42:25.948Z,4.00
2023-02-28T08:44:53.620Z,2.57
2023-02-28T08:47:21.713Z,3.27
2023-02-28T08:49:49.406Z,1.63
2023-02-28T08:52:17.094Z,1.70
2023-02-28T08:54:44.708Z,1.67
2023-02-28T08:57:12.389Z,1.47
2023-02-28T08:59:41.637Z,1.33
2023-02-28T09:02:10.815Z,2.70
2023-02-28T09:04:38.472Z,1.60
2023-02-28T09:07:06.126Z,1.70
2023-02-28T09:09:33.867Z,3.17
2023-02-28T09:12:01.607Z,3.37
2023-02-28T09:14:29.447Z,3.53
2023-02-28T09:16:58.520Z,1.70
2023-02-28T09:19:26.208Z,2.00
2023-02-28T09:21:53.825Z,1.97
2023-02-28T09:24:21.608Z,2.30
2023-02-28T09:27:03.823Z,1.53
2023-02-28T09:29:32.445Z,2.83
2023-02-28T09:32:01.976Z,1.47
2023-02-28T09:34:31.937Z,1.57
2023-02-28T09:36:59.874Z,2.50
2023-02-28T09:39:29.484Z,3.53
2023-02-28T09:41:58.819Z,2.57
2023-02-28T09:44:31.126Z,1.50
2023-02-28T09:47:02.596Z,2.83
2023-02-28T09:49:36.875Z,1.63
2023-02-28T09:52:10.018Z,2.53
2023-02-28T09:54:38.664Z,3.20
2023-02-28T09:57:10.842Z,2.40
2023-02-28T09:59:47.868Z,2.07
2023-02-28T10:02:23.555Z,2.30
2023-02-28T10:04:56.155Z,3.20
2023-02-28T10:07:36.189Z,2.53
2023-02-28T10:10:06.918Z,3.33
2023-02-28T10:12:35.324Z,3.17
2023-02-28T10:15:03.729Z,1.87
2023-02-28T10:17:49.332Z,1.73
2023-02-28T10:20:30.746Z,3.00
2023-02-28T10:23:01.016Z,2.33
2023-02-28T10:25:30.758Z,1.37
2023-02-28T10:28:03.243Z,1.43
2023-02-28T10:30:30.957Z,2.23
2023-02-28T10:33:00.041Z,2.20
2023-02-28T10:35:28.729Z,3.20
2023-02-28T10:37:57.874Z,2.20
2023-02-28T10:40:33.355Z,1.80
2023-02-28T10:43:02.935Z,3.53
2023-02-28T10:45:32.827Z,3.53
2023-02-28T10:48:05.326Z,2.67
2023-02-28T10:50:38.974Z,2.17
2023-02-28T10:53:36.034Z,1.93
2023-02-28T10:56:18.500Z,1.47
2023-02-28T10:58:55.730Z,1.73
2023-02-28T11:01:25.452Z,1.77
2023-02-28T11:03:55.047Z,1.40
2023-02-28T11:06:24.266Z,1.27
2023-02-28T11:08:54.151Z,4.10
2023-02-28T11:11:24.015Z,2.00
2023-02-28T11:13:54.639Z,1.43
2023-02-28T11:16:22.984Z,1.73
2023-02-28T11:18:52.375Z,4.00
2023-02-28T11:21:24.391Z,2.73
2023-02-28T11:23:53.915Z,3.17
2023-02-28T11:26:39.892Z,3.30
2023-02-28T11:29:23.534Z,2.77
2023-02-28T11:32:14.360Z,3.03
2023-02-28T11:34:43.372Z,2.20
2023-02-28T11:37:15.915Z,2.57
2023-02-28T11:39:43.899Z,2.83
2023-02-28T11:42:33.383Z,3.63
2023-02-28T11:45:12.020Z,2.77
2023-02-28T11:47:44.829Z,1.60
2023-02-28T11:50:23.354Z,1.97
2023-02-28T11:52:54.616Z,4.00
2023-02-28T11:55:26.779Z,2.90
2023-02-28T11:58:19.054Z,1.57
2023-02-28T12:00:59.885Z,2.73
2023-02-28T12:03:36.043Z,3.43
2023-02-28T12:06:12.079Z,2.57
2023-02-28T12:08:53.649Z,2.77
2023-02-28T12:11:30.443Z,2.97
2023-02-28T12:14:15.558Z,2.70
2023-02-28T12:16:57.504Z,4.77
2023-02-28T12:19:27.465Z,3.03
2023-02-28T12:22:23.372Z,3.13
2023-02-28T12:27:48.442Z,1.97
2023-02-28T12:30:19.815Z,1.90
2023-02-28T12:32:49.661Z,2.77
2023-02-28T12:35:21.791Z,3.70
2023-02-28T12:37:52.330Z,3.33
2023-02-28T12:40:23.391Z,1.90
2023-02-28T12:42:55.116Z,1.83
2023-02-28T12:45:24.582Z,3.87
2023-02-28T12:47:57.549Z,1.80
2023-02-28T12:50:26.424Z,3.67
2023-02-28T12:52:58.276Z,6.07
2023-02-28T12:55:32.036Z,2.57
2023-02-28T12:58:09.572Z,2.83
2023-02-28T13:00:39.026Z,1.67
2023-02-28T13:03:37.000Z,6.00
2023-02-28T13:06:17.378Z,2.70
2023-02-28T13:09:11.125Z,3.40
2023-02-28T13:11:45.799Z,3.67
2023-02-28T13:14:37.388Z,2.10
2023-02-28T13:17:13.193Z,2.07
2023-02-28T13:19:43.418Z,2.40
2023-02-28T13:22:19.659Z,1.60
2023-02-28T13:24:49.720Z,1.63
2023-02-28T13:27:40.305Z,2.10
2023-02-28T13:30:44.948Z,2.23
2023-02-28T13:33:31.134Z,5.07
2023-02-28T13:36:14.619Z,1.97
2023-02-28T13:38:43.532Z,3.20
2023-02-28T13:41:57.122Z,2.97
2023-02-28T13:44:27.669Z,3.40
2023-02-28T13:47:24.783Z,4.30
2023-02-28T13:49:54.879Z,2.03
2023-02-28T13:52:24.829Z,2.27
2023-02-28T13:55:23.686Z,2.60
2023-02-28T13:58:05.261Z,1.90
2023-02-28T14:00:42.407Z,2.90
2023-02-28T14:03:28.555Z,1.70
2023-02-28T14:06:19.211Z,1.80
2023-02-28T14:08:54.580Z,5.87
2023-02-28T14:11:33.661Z,1.50
2023-02-28T14:14:02.020Z,1.30
2023-02-28T14:16:40.138Z,2.80
2023-02-28T14:19:13.635Z,1.83
2023-02-28T14:21:50.655Z,1.83
2023-02-28T14:24:50.996Z,4.20
2023-02-28T14:27:36.811Z,3.70
2023-02-28T14:30:45.933Z,3.80
2023-02-28T14:33:25.010Z,2.03
2023-02-28T14:36:03.038Z,1.87
2023-02-28T14:38:34.073Z,1.30
2023-02-28T14:41:05.632Z,2.43
2023-02-28T14:43:33.326Z,2.70
2023-02-28T14:46:03.066Z,1.47
2023-02-28T14:48:30.751Z,1.93
2023-02-28T14:50:59.710Z,1.50
2023-02-28T14:53:28.543Z,1.67
2023-02-28T14:55:57.783Z,2.03
2023-02-28T14:58:27.571Z,1.73
2023-02-28T15:00:57.347Z,1.77
2023-02-28T15:03:29.722Z,2.93
2023-02-28T15:05:59.628Z,1.50
2023-02-28T15:08:30.111Z,1.63
2023-02-28T15:11:01.508Z,2.10
2023-02-28T15:13:37.705Z,1.50
2023-02-28T15:16:07.212Z,1.97
2023-02-28T15:18:42.647Z,2.40
2023-02-28T15:21:15.266Z,4.43
2023-02-28T15:23:45.944Z,1.67
2023-02-28T15:26:16.643Z,3.27
2023-02-28T15:28:44.608Z,2.77
2023-02-28T15:31:23.720Z,3.23
2023-02-28T15:33:56.520Z,2.77
2023-02-28T15:36:28.759Z,4.47
2023-02-28T15:39:01.575Z,2.97
2023-02-28T15:41:40.011Z,1.33
2023-02-28T15:44:30.197Z,3.33
2023-02-28T15:47:02.367Z,2.90
2023-02-28T15:49:31.983Z,4.47
2023-02-28T15:52:01.783Z,2.83
2023-02-28T15:54:31.525Z,3.30
2023-02-28T15:57:05.527Z,3.53
2023-02-28T15:59:33.398Z,3.70
2023-02-28T16:02:18.882Z,5.00
2023-02-28T16:05:14.654Z,2.33
2023-02-28T16:07:43.986Z,3.63
2023-02-28T16:10:15.137Z,1.87
2023-02-28T16:12:44.756Z,1.57
2023-02-28T16:15:21.069Z,8.47
2023-02-28T16:17:49.134Z,5.40
2023-02-28T16:20:17.843Z,2.03
2023-02-28T16:22:46.563Z,3.93
2023-02-28T16:25:15.070Z,2.40
2023-02-28T16:27:46.145Z,3.07
2023-02-28T16:30:21.553Z,3.53
2023-02-28T16:32:49.716Z,4.10
2023-02-28T16:35:18.822Z,3.40
2023-02-28T16:37:46.968Z,2.80
2023-02-28T16:40:18.967Z,3.23
2023-02-28T16:42:49.177Z,2.60
2023-02-28T16:45:22.191Z,9.53
2023-02-28T16:47:49.970Z,4.57
2023-02-28T16:50:19.874Z,6.83
2023-02-28T16:52:47.691Z,3.37
2023-02-28T16:55:15.539Z,2.37
2023-02-28T16:57:43.925Z,10.90
2023-02-28T17:00:16.298Z,23.67
2023-02-28T17:02:44.175Z,12.87
2023-02-28T17:05:14.043Z,10.80
2023-02-28T17:07:41.915Z,8.20
2023-02-28T17:10:16.052Z,5.40
2023-02-28T17:12:43.705Z,5.93
2023-02-28T17:15:12.776Z,6.33
2023-02-28T17:17:42.744Z,5.33
2023-02-28T17:20:14.521Z,7.83
2023-02-28T17:22:42.399Z,6.10
2023-02-28T17:25:12.108Z,6.27
2023-02-28T17:27:39.919Z,7.40
2023-02-28T17:30:16.394Z,12.10
2023-02-28T17:32:45.577Z,10.33
2023-02-28T17:35:13.375Z,17.17
2023-02-28T17:37:41.184Z,10.13
2023-02-28T17:40:16.777Z,5.90
2023-02-28T17:42:44.680Z,6.37
2023-02-28T17:45:13.348Z,3.30
2023-02-28T17:47:41.388Z,4.00
2023-02-28T17:50:13.837Z,4.57
2023-02-28T17:52:41.549Z,6.67
2023-02-28T17:55:11.435Z,7.63
2023-02-28T17:57:39.228Z,7.30
2023-02-28T18:00:08.479Z,12.80
2023-02-28T18:02:36.360Z,15.43
2023-02-28T18:05:05.434Z,19.23
2023-02-28T18:07:34.567Z,13.53
2023-02-28T18:10:04.169Z,17.27
2023-02-28T18:12:32.288Z,10.63
2023-02-28T18:15:01.783Z,5.80
2023-02-28T18:17:29.527Z,7.50
2023-02-28T18:19:57.221Z,6.47
2023-02-28T18:22:24.871Z,8.47
2023-02-28T18:24:53.844Z,7.73
2023-02-28T18:27:21.535Z,6.00
2023-02-28T18:29:53.027Z,11.23
2023-02-28T18:32:20.989Z,8.93
2023-02-28T18:34:48.840Z,8.37
2023-02-28T18:37:18.526Z,7.07
2023-02-28T18:39:46.383Z,5.90
2023-02-28T18:42:15.419Z,6.17
2023-02-28T18:44:43.135Z,8.03
2023-02-28T18:47:11.048Z,7.77
2023-02-28T18:49:38.739Z,8.00
2023-02-28T18:52:06.513Z,8.43
2023-02-28T18:54:34.235Z,10.07
2023-02-28T18:57:01.913Z,10.30
2023-02-28T18:59:31.198Z,11.67
2023-02-28T19:01:59.344Z,8.23
2023-02-28T19:04:27.092Z,16.87
2023-02-28T19:06:54.785Z,6.93
2023-02-28T19:09:22.793Z,8.07
2023-02-28T19:11:50.443Z,7.07
2023-02-28T19:14:18.176Z,7.63
2023-02-28T19:16:47.605Z,8.23
2023-02-28T19:19:15.421Z,8.50
2023-02-28T19:21:43.052Z,6.10
2023-02-28T19:24:10.704Z,10.00
2023-02-28T19:26:38.398Z,6.77
2023-02-28T19:29:06.889Z,6.27
2023-02-28T19:31:34.839Z,7.67
2023-02-28T19:34:03.967Z,7.40
2023-02-28T19:36:31.790Z,5.37
2023-02-28T19:38:59.511Z,9.10
2023-02-28T19:41:27.178Z,9.07
2023-02-28T19:43:55.250Z,12.67
2023-02-28T19:46:23.165Z,15.77
2023-02-28T19:48:54.331Z,14.17
2023-02-28T19:51:24.074Z,15.13
2023-02-28T19:53:51.993Z,11.40
2023-02-28T19:56:19.766Z,12.83
2023-02-28T19:58:47.674Z,8.17
2023-02-28T20:01:17.805Z,7.67
2023-02-28T20:03:48.925Z,9.83
2023-02-28T20:06:16.649Z,9.63
2023-02-28T20:08:45.637Z,5.67
2023-02-28T20:11:15.077Z,5.37
2023-02-28T20:13:42.872Z,4.33
2023-02-28T20:16:12.220Z,22.67
2023-02-28T20:18:40.635Z,14.13
2023-02-28T20:21:09.842Z,8.80
2023-02-28T20:23:38.822Z,7.23
2023-02-28T20:26:08.356Z,8.23
2023-02-28T20:28:36.080Z,12.83
2023-02-28T20:31:03.846Z,11.00
2023-02-28T20:33:31.554Z,20.40
2023-02-28T20:36:00.335Z,8.00
2023-02-28T20:38:28.156Z,41.27
2023-02-28T20:40:56.292Z,26.37
2023-02-28T20:43:25.416Z,20.53
2023-02-28T20:45:53.556Z,17.10
2023-02-28T20:48:22.075Z,77.10
2023-02-28T20:50:50.768Z,27.37
2023-02-28T20:53:18.928Z,26.83
2023-02-28T20:55:55.434Z,22.90
2023-02-28T20:58:24.944Z,18.63
2023-02-28T21:00:53.022Z,19.37
2023-02-28T21:03:20.697Z,15.37
2023-02-28T21:05:48.445Z,18.80
2023-02-28T21:08:16.164Z,9.60
2023-02-28T21:10:43.884Z,25.63
2023-02-28T21:13:11.607Z,34.47
2023-02-28T21:15:40.730Z,21.43
2023-02-28T21:18:08.838Z,18.63
2023-02-28T21:20:36.557Z,15.07
2023-02-28T21:23:04.615Z,23.90
2023-02-28T21:25:33.941Z,26.07
2023-02-28T21:28:01.619Z,13.13
2023-02-28T21:30:29.339Z,13.17
2023-02-28T21:32:58.669Z,15.20
2023-02-28T21:35:26.477Z,16.27
2023-02-28T21:37:54.143Z,18.50
2023-02-28T21:40:21.874Z,17.00
2023-02-28T21:42:49.534Z,15.87
2023-02-28T21:45:17.297Z,14.93
2023-02-28T21:47:45.050Z,14.10
2023-02-28T21:50:14.755Z,13.53
2023-02-28T21:52:42.767Z,9.17
2023-02-28T21:55:11.108Z,10.47
2023-02-28T21:57:38.839Z,18.10
2023-02-28T22:00:08.764Z,13.50
2023-02-28T22:02:38.219Z,11.53
2023-02-28T22:05:06.470Z,10.00
2023-02-28T22:07:35.476Z,13.27
2023-02-28T22:10:03.154Z,17.20
2023-02-28T22:12:31.156Z,14.43
2023-02-28T22:14:58.819Z,18.57
2023-02-28T22:17:26.459Z,14.33
2023-02-28T22:19:54.143Z,13.37
2023-02-28T22:22:21.844Z,16.13
2023-02-28T22:24:50.946Z,8.60
2023-02-28T22:27:18.682Z,7.93
2023-02-28T22:29:47.445Z,9.17
2023-02-28T22:32:15.789Z,6.83
2023-02-28T22:34:43.514Z,8.00
2023-02-28T22:37:11.177Z,7.77
2023-02-28T22:39:38.821Z,5.13
2023-02-28T22:42:07.952Z,9.00
2023-02-28T22:44:35.682Z,14.47
2023-02-28T22:47:03.534Z,12.67
2023-02-28T22:49:31.217Z,11.70
2023-02-28T22:51:58.876Z,12.80
2023-02-28T22:54:26.669Z,6.10
2023-02-28T22:56:54.318Z,6.00
2023-02-28T22:59:23.361Z,6.13
2023-02-28T23:01:50.995Z,6.23
2023-02-28T23:04:19.586Z,10.50
2023-02-28T23:06:47.377Z,8.23
2023-02-28T23:09:18.354Z,5.23
2023-02-28T23:11:48.124Z,8.93
2023-02-28T23:14:17.505Z,6.37
2023-02-28T23:16:48.298Z,6.23
2023-02-28T23:19:17.904Z,8.33
2023-02-28T23:21:46.101Z,6.13
2023-02-28T23:24:15.764Z,7.70
2023-02-28T23:26:45.314Z,9.87
2023-02-28T23:29:13.640Z,6.60
2023-02-28T23:31:41.526Z,6.97
2023-02-28T23:34:11.052Z,7.37
2023-02-28T23:36:39.209Z,7.73
2023-02-28T23:39:07.282Z,9.13
2023-02-28T23:41:34.953Z,5.93
2023-02-28T23:44:02.709Z,7.20
2023-02-28T23:46:30.579Z,6.83
2023-02-28T23:48:59.779Z,8.53
2023-02-28T23:51:28.802Z,8.40
2023-02-28T23:53:56.482Z,10.70
2023-02-28T23:56:25.366Z,7.00
2023-02-28T23:58:55.689Z,9.70
